createdAt,value
2023-03-17T00:02:00.770Z,71.27
2023-03-17T00:04:29.232Z,71.37
2023-03-17T00:06:58.108Z,71.30
2023-03-17T00:09:26.803Z,71.23
2023-03-17T00:11:55.316Z,71.11
2023-03-17T00:14:24.492Z,70.98
2023-03-17T00:16:52.864Z,70.85
2023-03-17T00:19:33.003Z,70.95
2023-03-17T00:22:01.787Z,70.86
2023-03-17T00:24:31.296Z,70.83
2023-03-17T00:27:02.829Z,70.61
2023-03-17T00:29:33.153Z,70.54
2023-03-17T00:32:01.301Z,70.55
2023-03-17T00:34:32.347Z,70.26
2023-03-17T00:37:02.144Z,70.24
2023-03-17T00:39:30.576Z,70.36
2023-03-17T00:41:59.810Z,70.17
2023-03-17T00:44:28.524Z,70.12
2023-03-17T00:46:59.236Z,70.33
2023-03-17T00:49:29.704Z,70.29
2023-03-17T00:51:58.019Z,70.62
2023-03-17T00:54:27.184Z,70.87
2023-03-17T00:56:55.779Z,71.05
2023-03-17T00:59:28.190Z,70.93
2023-03-17T01:01:57.071Z,70.94
2023-03-17T01:04:26.236Z,70.86
2023-03-17T01:06:54.722Z,70.87
2023-03-17T01:09:26.036Z,71.19
2023-03-17T01:11:55.724Z,71.20
2023-03-17T01:14:29.352Z,71.38
2023-03-17T01:16:58.376Z,71.20
2023-03-17T01:19:29.256Z,70.99
2023-03-17T01:21:57.984Z,70.89
2023-03-17T01:24:27.180Z,70.84
2023-03-17T01:26:55.390Z,70.98
2023-03-17T01:29:23.740Z,70.83
2023-03-17T01:31:53.190Z,70.69
2023-03-17T01:34:22.572Z,70.67
2023-03-17T01:36:51.876Z,70.77
2023-03-17T01:39:20.547Z,71.06
2023-03-17T01:42:08.730Z,71.09
2023-03-17T01:45:00.003Z,71.19
2023-03-17T01:47:30.701Z,71.14
2023-03-17T01:50:07.664Z,71.23
2023-03-17T01:52:39.819Z,71.41
2023-03-17T01:55:14.848Z,71.43
2023-03-17T01:57:51.574Z,71.49
2023-03-17T02:00:21.548Z,71.43
2023-03-17T02:02:53.023Z,71.43
2023-03-17T02:05:24.189Z,71.14
2023-03-17T02:07:53.749Z,71.37
2023-03-17T02:10:25.355Z,71.22
2023-03-17T02:12:56.901Z,71.34
2023-03-17T02:15:35.723Z,71.24
2023-03-17T02:18:05.093Z,71.46
2023-03-17T02:20:33.345Z,71.60
2023-03-17T02:23:02.413Z,71.70
2023-03-17T02:25:31.810Z,71.75
2023-03-17T02:28:08.989Z,71.73
2023-03-17T02:30:40.563Z,71.75
2023-03-17T02:33:12.075Z,71.56
2023-03-17T02:35:41.621Z,71.38
2023-03-17T02:38:10.046Z,71.62
2023-03-17T02:40:38.495Z,71.68
2023-03-17T02:43:07.464Z,71.65
2023-03-17T02:45:36.914Z,71.62
2023-03-17T02:48:07.305Z,71.52
2023-03-17T02:50:37.923Z,71.73
2023-03-17T02:53:10.530Z,71.84
2023-03-17T02:55:38.936Z,71.64
2023-03-17T02:58:07.392Z,71.43
2023-03-17T03:00:40.918Z,71.52
2023-03-17T03:03:10.432Z,71.54
2023-03-17T03:05:40.227Z,71.70
2023-03-17T03:08:09.675Z,71.59
2023-03-17T03:10:38.124Z,71.40
2023-03-17T03:13:09.231Z,71.32
2023-03-17T03:15:42.159Z,71.29
2023-03-17T03:18:10.501Z,71.21
2023-03-17T03:20:39.281Z,71.37
2023-03-17T03:23:07.627Z,71.62
2023-03-17T03:25:38.130Z,71.41
2023-03-17T03:28:08.258Z,71.26
2023-03-17T03:30:37.100Z,71.28
2023-03-17T03:33:08.042Z,71.48
2023-03-17T03:35:36.801Z,71.45
2023-03-17T03:38:05.853Z,71.58
2023-03-17T03:40:34.891Z,71.79
2023-03-17T03:43:16.106Z,71.80
2023-03-17T03:45:51.497Z,72.00
2023-03-17T03:48:20.507Z,71.86
2023-03-17T03:50:50.152Z,71.71
2023-03-17T03:53:19.913Z,71.86
2023-03-17T03:55:49.738Z,71.86
2023-03-17T03:58:18.304Z,71.84
2023-03-17T04:00:46.948Z,71.30
2023-03-17T04:03:16.164Z,71.29
2023-03-17T04:05:44.829Z,71.40
2023-03-17T04:08:18.367Z,71.56
2023-03-17T04:10:49.767Z,71.55
2023-03-17T04:13:18.772Z,71.52
2023-03-17T04:15:47.198Z,71.69
2023-03-17T04:18:16.856Z,71.51
2023-03-17T04:20:45.412Z,71.53
2023-03-17T04:23:13.845Z,71.76
2023-03-17T04:25:42.939Z,72.08
2023-03-17T04:28:12.683Z,72.07
2023-03-17T04:30:43.341Z,72.23
2023-03-17T04:33:12.824Z,72.06
2023-03-17T04:35:41.585Z,72.13
2023-03-17T04:38:12.317Z,72.04
2023-03-17T04:40:41.728Z,71.99
2023-03-17T04:43:10.827Z,71.95
2023-03-17T04:45:39.381Z,71.92
2023-03-17T04:48:10.149Z,71.54
2023-03-17T04:50:39.336Z,71.35
2023-03-17T04:53:11.549Z,71.05
2023-03-17T04:55:40.773Z,71.27
2023-03-17T04:58:11.674Z,71.48
2023-03-17T05:00:42.699Z,71.49
2023-03-17T05:03:24.028Z,71.42
2023-03-17T05:06:01.429Z,71.65
2023-03-17T05:08:30.039Z,71.70
2023-03-17T05:10:58.807Z,71.96
2023-03-17T05:13:27.529Z,72.22
2023-03-17T05:15:56.330Z,72.10
2023-03-17T05:18:25.709Z,71.84
2023-03-17T05:20:55.397Z,71.67
2023-03-17T05:23:24.034Z,71.53
2023-03-17T05:25:57.704Z,71.41
2023-03-17T05:28:27.832Z,71.23
2023-03-17T05:30:56.640Z,71.34
2023-03-17T05:33:26.260Z,71.30
2023-03-17T05:35:54.552Z,71.49
2023-03-17T05:38:23.150Z,71.29
2023-03-17T05:40:52.759Z,71.21
2023-03-17T05:43:21.426Z,70.93
2023-03-17T05:45:51.062Z,70.92
2023-03-17T05:48:26.782Z,70.91
2023-03-17T05:50:55.211Z,70.91
2023-03-17T05:53:23.700Z,71.23
2023-03-17T05:55:53.103Z,71.42
2023-03-17T05:58:22.233Z,71.51
2023-03-17T06:00:56.340Z,71.69
2023-03-17T06:03:26.290Z,71.42
2023-03-17T06:05:54.680Z,71.40
2023-03-17T06:08:23.517Z,71.34
2023-03-17T06:10:55.558Z,71.15
2023-03-17T06:13:23.764Z,71.22
2023-03-17T06:15:52.468Z,71.33
2023-03-17T06:18:21.057Z,71.18
2023-03-17T06:20:49.608Z,71.11
2023-03-17T06:23:19.040Z,71.01
2023-03-17T06:25:47.825Z,71.13
2023-03-17T06:28:18.602Z,71.18
2023-03-17T06:30:47.165Z,71.34
2023-03-17T06:33:19.311Z,71.44
2023-03-17T06:35:48.420Z,71.48
2023-03-17T06:38:16.811Z,71.16
2023-03-17T06:40:45.306Z,71.45
2023-03-17T06:43:13.725Z,71.27
2023-03-17T06:45:46.995Z,71.36
2023-03-17T06:48:15.853Z,71.14
2023-03-17T06:50:44.775Z,71.14
2023-03-17T06:53:14.230Z,71.25
2023-03-17T06:55:43.260Z,71.34
2023-03-17T06:58:16.075Z,71.43
2023-03-17T07:00:45.574Z,71.53
2023-03-17T07:03:14.139Z,71.57
2023-03-17T07:05:44.730Z,71.44
2023-03-17T07:08:13.852Z,71.34
2023-03-17T07:10:43.367Z,71.38
2023-03-17T07:13:12.211Z,71.56
2023-03-17T07:15:41.148Z,71.58
2023-03-17T07:18:14.036Z,71.29
2023-03-17T07:20:46.892Z,71.11
2023-03-17T07:23:16.554Z,71.26
2023-03-17T07:25:45.822Z,71.25
2023-03-17T07:28:15.020Z,71.20
2023-03-17T07:30:48.685Z,71.03
2023-03-17T07:33:21.340Z,70.91
2023-03-17T07:35:52.533Z,71.15
2023-03-17T07:38:21.229Z,70.81
2023-03-17T07:40:49.605Z,71.19
2023-03-17T07:43:19.456Z,71.08
2023-03-17T07:45:48.091Z,71.27
2023-03-17T07:48:19.297Z,71.00
2023-03-17T07:50:48.664Z,71.22
2023-03-17T07:53:17.170Z,71.25
2023-03-17T07:55:49.509Z,71.22
2023-03-17T07:58:18.399Z,71.11
2023-03-17T08:00:54.702Z,71.28
2023-03-17T08:03:28.461Z,71.20
2023-03-17T08:06:00.027Z,71.18
2023-03-17T08:08:33.057Z,71.06
2023-03-17T08:15:15.015Z,71.22
2023-03-17T08:17:50.104Z,71.26
2023-03-17T08:22:01.068Z,70.96
2023-03-17T08:24:36.323Z,70.67
2023-03-17T08:27:06.681Z,70.44
2023-03-17T08:29:36.329Z,70.42
2023-03-17T08:32:07.296Z,70.49
2023-03-17T08:34:36.399Z,70.51
2023-03-17T08:37:11.629Z,70.66
2023-03-17T08:40:10.182Z,70.88
2023-03-17T08:43:08.670Z,70.63
2023-03-17T08:45:41.633Z,70.79
2023-03-17T08:48:11.840Z,71.10
2023-03-17T08:50:42.477Z,71.22
2023-03-17T08:53:39.457Z,71.29
2023-03-17T08:56:09.178Z,71.15
2023-03-17T08:59:29.288Z,71.10
2023-03-17T09:02:01.384Z,71.21
2023-03-17T09:04:31.307Z,71.09
2023-03-17T09:07:04.069Z,71.04
2023-03-17T09:09:37.131Z,70.94
2023-03-17T09:12:08.238Z,70.88
2023-03-17T09:15:04.851Z,70.64
2023-03-17T09:17:50.687Z,70.80
2023-03-17T09:20:29.512Z,70.81
2023-03-17T09:23:20.574Z,70.95
2023-03-17T09:26:20.608Z,70.98
2023-03-17T09:28:56.215Z,71.18
2023-03-17T09:31:51.876Z,71.11
2023-03-17T09:34:27.539Z,71.14
2023-03-17T09:37:02.148Z,71.17
2023-03-17T09:39:33.619Z,71.09
2023-03-17T09:42:22.736Z,71.11
2023-03-17T09:45:03.903Z,71.40
2023-03-17T09:48:09.981Z,71.47
2023-03-17T09:50:56.898Z,71.69
2023-03-17T09:53:38.184Z,71.52
2023-03-17T09:56:13.279Z,71.39
2023-03-17T09:58:53.530Z,71.28
2023-03-17T10:04:24.703Z,70.92
2023-03-17T10:06:59.706Z,71.10
2023-03-17T10:10:06.465Z,71.03
2023-03-17T10:12:59.444Z,71.02
2023-03-17T10:15:32.617Z,70.99
2023-03-17T10:18:03.328Z,71.09
2023-03-17T10:20:33.909Z,71.10
2023-03-17T10:23:09.752Z,71.22
2023-03-17T10:25:39.494Z,71.17
2023-03-17T10:28:26.191Z,71.09
2023-03-17T10:30:54.706Z,70.72
2023-03-17T10:33:23.618Z,70.93
2023-03-17T10:35:53.050Z,70.72
2023-03-17T10:38:22.096Z,70.68
2023-03-17T10:41:00.653Z,70.70
2023-03-17T10:43:30.839Z,70.73
2023-03-17T10:46:05.819Z,70.61
2023-03-17T10:48:38.531Z,70.61
2023-03-17T10:51:10.413Z,70.38
2023-03-17T10:53:44.918Z,70.56
2023-03-17T10:56:27.085Z,70.62
2023-03-17T10:58:57.771Z,70.57
2023-03-17T11:01:29.864Z,70.43
2023-03-17T11:04:00.575Z,70.48
2023-03-17T11:06:50.453Z,70.58
2023-03-17T11:09:19.297Z,70.56
2023-03-17T11:12:05.805Z,70.56
2023-03-17T11:14:35.465Z,70.49
2023-03-17T11:17:09.444Z,70.08
2023-03-17T11:19:58.554Z,70.16
2023-03-17T11:22:43.057Z,70.80
2023-03-17T11:25:19.611Z,70.60
2023-03-17T11:27:53.880Z,70.56
2023-03-17T11:30:37.241Z,70.68
2023-03-17T11:34:05.745Z,70.41
2023-03-17T11:36:51.863Z,70.33
2023-03-17T11:39:25.713Z,70.10
2023-03-17T11:41:58.008Z,69.62
2023-03-17T11:52:55.172Z,69.64
2023-03-17T11:56:02.174Z,69.75
2023-03-17T11:58:44.788Z,69.61
2023-03-17T12:05:35.739Z,69.51
2023-03-17T12:08:40.814Z,69.54
2023-03-17T12:14:24.917Z,69.30
2023-03-17T12:17:25.840Z,69.24
2023-03-17T12:20:42.442Z,69.16
2023-03-17T12:23:48.440Z,69.30
2023-03-17T12:27:05.256Z,69.39
2023-03-17T12:30:01.315Z,69.24
2023-03-17T12:32:39.577Z,69.35
2023-03-17T12:35:29.979Z,69.48
2023-03-17T12:39:16.043Z,69.39
2023-03-17T12:42:25.867Z,69.16
2023-03-17T12:45:37.519Z,69.13
2023-03-17T12:48:31.209Z,68.88
2023-03-17T12:51:17.648Z,68.89
2023-03-17T12:53:48.959Z,68.77
2023-03-17T12:56:33.926Z,69.00
2023-03-17T12:59:13.281Z,69.03
2023-03-17T13:01:57.514Z,69.09
2023-03-17T13:08:39.606Z,69.04
2023-03-17T13:11:18.529Z,68.95
2023-03-17T13:13:49.706Z,68.80
2023-03-17T13:16:27.076Z,68.81
2023-03-17T13:19:15.993Z,68.89
2023-03-17T13:22:00.750Z,68.97
2023-03-17T13:24:51.272Z,69.06
2023-03-17T13:27:30.987Z,69.09
2023-03-17T13:30:01.713Z,69.23
2023-03-17T13:32:33.297Z,69.12
2023-03-17T13:35:01.854Z,69.09
2023-03-17T13:37:35.058Z,69.16
2023-03-17T13:40:09.392Z,69.41
2023-03-17T13:42:58.520Z,69.41
2023-03-17T13:45:39.842Z,69.32
2023-03-17T13:48:29.694Z,69.37
2023-03-17T13:51:01.608Z,69.50
2023-03-17T13:53:31.309Z,69.65
2023-03-17T13:56:08.716Z,69.62
2023-03-17T13:58:50.250Z,69.86
2023-03-17T14:01:19.112Z,70.05
2023-03-17T14:03:51.325Z,70.16
2023-03-17T14:06:20.160Z,70.38
2023-03-17T14:08:53.942Z,70.40
2023-03-17T14:11:38.879Z,70.41
2023-03-17T14:14:32.546Z,70.60
2023-03-17T14:17:03.389Z,70.76
2023-03-17T14:19:33.522Z,70.90
2023-03-17T14:22:04.634Z,71.14
2023-03-17T14:24:33.729Z,71.28
2023-03-17T14:27:09.541Z,71.12
2023-03-17T14:29:38.028Z,71.41
2023-03-17T14:32:17.027Z,71.44
2023-03-17T14:34:48.771Z,71.68
2023-03-17T14:37:17.148Z,71.81
2023-03-17T14:39:52.401Z,71.90
2023-03-17T14:42:27.211Z,72.06
2023-03-17T14:45:01.979Z,71.92
2023-03-17T14:47:32.727Z,71.95
2023-03-17T14:50:01.845Z,71.90
2023-03-17T14:52:32.693Z,71.75
2023-03-17T14:55:00.962Z,71.72
2023-03-17T14:57:32.361Z,71.66
2023-03-17T15:00:19.623Z,71.59
2023-03-17T15:02:57.043Z,71.44
2023-03-17T15:05:29.325Z,71.33
2023-03-17T15:07:58.450Z,71.56
2023-03-17T15:10:34.511Z,71.59
2023-03-17T15:13:06.578Z,71.78
2023-03-17T15:15:35.850Z,72.11
2023-03-17T15:18:10.428Z,72.25
2023-03-17T15:20:39.829Z,72.31
2023-03-17T15:23:13.793Z,72.19
2023-03-17T15:25:44.059Z,72.14
2023-03-17T15:28:14.033Z,71.91
2023-03-17T15:30:48.234Z,72.08
2023-03-17T15:33:32.644Z,72.11
2023-03-17T15:36:05.055Z,72.41
2023-03-17T15:38:37.190Z,72.42
2023-03-17T15:41:05.535Z,72.48
2023-03-17T15:43:36.472Z,72.65
2023-03-17T15:46:07.345Z,72.74
2023-03-17T15:48:36.616Z,72.88
2023-03-17T15:51:05.346Z,72.78
2023-03-17T15:53:34.638Z,72.83
2023-03-17T15:56:03.000Z,72.88
2023-03-17T15:58:43.793Z,72.91
2023-03-17T16:01:15.882Z,72.94
2023-03-17T16:03:48.596Z,72.80
2023-03-17T16:35:49.659Z,72.52
2023-03-17T16:40:03.316Z,72.70
2023-03-17T16:44:14.604Z,72.56
2023-03-17T17:54:38.756Z,72.39
2023-03-17T17:57:07.086Z,72.39
2023-03-17T17:59:35.853Z,72.38
2023-03-17T18:02:04.046Z,72.23
2023-03-17T18:04:41.897Z,72.09
2023-03-17T18:07:12.842Z,71.99
2023-03-17T18:09:41.259Z,71.86
2023-03-17T18:12:11.064Z,71.65
2023-03-17T18:14:39.102Z,71.70
2023-03-17T18:17:07.820Z,71.68
2023-03-17T18:19:37.621Z,71.57
2023-03-17T18:22:05.773Z,71.54
2023-03-17T18:24:39.370Z,71.41
2023-03-17T18:27:07.783Z,71.22
2023-03-17T18:29:36.554Z,70.96
2023-03-17T18:32:06.920Z,70.69
2023-03-17T18:34:43.421Z,70.77
2023-03-17T18:37:16.490Z,70.64
2023-03-17T18:39:48.821Z,70.62
2023-03-17T18:42:21.091Z,70.76
2023-03-17T18:44:49.629Z,70.78
2023-03-17T18:47:17.606Z,70.70
2023-03-17T18:49:47.288Z,70.77
2023-03-17T18:52:15.746Z,70.73
2023-03-17T18:54:43.773Z,70.81
2023-03-17T18:57:12.351Z,70.81
2023-03-17T18:59:40.355Z,70.93
2023-03-17T19:02:08.652Z,70.94
2023-03-17T19:04:43.342Z,71.01
2023-03-17T19:07:12.433Z,70.83
2023-03-17T19:09:43.659Z,70.79
2023-03-17T19:12:12.409Z,70.82
2023-03-17T19:14:40.743Z,71.02
2023-03-17T19:17:09.015Z,71.10
2023-03-17T19:19:37.038Z,71.37
2023-03-17T19:22:06.325Z,71.26
2023-03-17T19:24:35.451Z,71.32
2023-03-17T19:27:03.887Z,71.50
2023-03-17T19:29:32.895Z,71.45
2023-03-17T19:32:02.517Z,71.61
2023-03-17T19:34:31.066Z,71.61
2023-03-17T19:36:59.425Z,71.67
2023-03-17T19:39:27.940Z,71.75
2023-03-17T19:41:58.053Z,71.66
2023-03-17T19:44:26.552Z,71.61
2023-03-17T19:46:54.577Z,71.61
2023-03-17T19:49:22.646Z,71.79
2023-03-17T19:51:50.838Z,71.76
2023-03-17T19:54:19.096Z,71.79
2023-03-17T19:56:47.404Z,71.81
2023-03-17T19:59:19.790Z,71.67
2023-03-17T20:01:49.118Z,71.68
2023-03-17T20:04:22.103Z,71.56
2023-03-17T20:06:55.785Z,71.50
2023-03-17T20:09:26.231Z,71.13
2023-03-17T20:11:54.647Z,71.11
2023-03-17T20:14:23.842Z,71.29
2023-03-17T20:16:53.495Z,71.32
2023-03-17T20:19:21.956Z,71.50
2023-03-17T20:21:49.989Z,71.44
2023-03-17T20:24:18.102Z,71.52
2023-03-17T20:26:51.774Z,71.45
2023-03-17T20:29:19.947Z,71.59
2023-03-17T20:31:48.606Z,71.63
2023-03-17T20:34:16.952Z,71.70
2023-03-17T20:36:45.210Z,71.49
2023-03-17T20:39:19.697Z,71.20
2023-03-17T20:41:51.693Z,71.19
2023-03-17T20:44:20.286Z,71.16
2023-03-17T20:46:51.094Z,71.28
2023-03-17T20:49:19.116Z,71.28
2023-03-17T20:51:47.696Z,71.30
2023-03-17T20:58:59.104Z,71.13
2023-03-17T21:05:36.896Z,71.20
2023-03-17T21:08:06.922Z,71.21
2023-03-17T21:10:35.401Z,71.08
2023-03-17T21:13:04.054Z,71.04
2023-03-17T21:15:32.475Z,70.96
2023-03-17T21:18:00.955Z,70.91
2023-03-17T21:20:29.868Z,70.90
2023-03-17T21:22:59.680Z,70.72
2023-03-17T21:25:28.851Z,70.73
2023-03-17T21:27:56.842Z,70.85
2023-03-17T21:30:24.997Z,70.92
2023-03-17T21:32:55.767Z,71.03
2023-03-17T21:35:24.987Z,70.96
2023-03-17T21:37:53.556Z,70.91
2023-03-17T21:40:22.588Z,70.73
2023-03-17T21:42:51.167Z,70.54
2023-03-17T21:45:20.287Z,70.44
2023-03-17T21:47:49.155Z,70.44
2023-03-17T21:50:19.267Z,70.54
2023-03-17T21:52:48.719Z,70.28
2023-03-17T21:55:17.078Z,70.09
2023-03-17T21:57:45.299Z,70.03
2023-03-17T22:00:13.788Z,69.86
2023-03-17T22:02:42.948Z,69.60
2023-03-17T22:09:56.990Z,69.87
2023-03-17T22:12:27.117Z,69.77
2023-03-17T22:14:56.405Z,69.69
2023-03-17T22:17:25.909Z,69.81
2023-03-17T22:19:54.132Z,69.88
2023-03-17T22:22:22.219Z,69.76
2023-03-17T22:24:50.665Z,69.83
2023-03-17T22:27:18.654Z,69.83
2023-03-17T22:29:48.697Z,70.17
2023-03-17T22:32:16.946Z,70.32
2023-03-17T22:34:45.269Z,70.33
2023-03-17T22:37:14.497Z,70.20
2023-03-17T22:39:42.939Z,69.85
2023-03-17T22:42:11.667Z,69.84
2023-03-17T22:44:40.331Z,69.93
2023-03-17T22:47:08.690Z,69.83
2023-03-17T22:49:37.007Z,69.66
2023-03-17T22:52:05.991Z,69.44
2023-03-17T22:54:33.930Z,69.29
2023-03-17T22:57:03.113Z,69.07
2023-03-17T22:59:38.940Z,69.20
2023-03-17T23:02:08.572Z,69.42
2023-03-17T23:04:36.946Z,69.37
2023-03-17T23:07:07.459Z,69.23
2023-03-17T23:09:38.680Z,69.08
2023-03-17T23:12:09.514Z,69.08
2023-03-17T23:14:38.890Z,69.18
2023-03-17T23:17:09.224Z,69.17
2023-03-17T23:19:38.590Z,68.94
2023-03-17T23:22:06.813Z,69.05
2023-03-17T23:24:35.144Z,69.05
2023-03-17T23:27:03.790Z,69.08
2023-03-17T23:29:32.876Z,69.08
2023-03-17T23:32:02.382Z,68.72
2023-03-17T23:34:30.877Z,68.77
2023-03-17T23:37:01.005Z,68.85
2023-03-17T23:39:29.296Z,68.87
2023-03-17T23:41:57.442Z,68.98
2023-03-17T23:44:27.256Z,68.91
2023-03-17T23:46:55.457Z,69.10
2023-03-17T23:49:24.281Z,69.38
2023-03-17T23:51:54.498Z,69.49
2023-03-17T23:54:23.123Z,69.75
2023-03-17T23:56:54.240Z,69.69
2023-03-17T23:59:23.300Z,69.74
